createdAt,value
2022-10-23T00:00:41.835Z,231.13
2022-10-23T00:03:09.455Z,204.13
2022-10-23T00:05:41.303Z,152.55
2022-10-23T00:08:08.958Z,127.70
2022-10-23T00:10:36.499Z,162.23
2022-10-23T00:13:04.087Z,153.60
2022-10-23T00:15:32.449Z,150.60
2022-10-23T00:18:01.368Z,138.27
2022-10-23T00:20:29.154Z,221.43
2022-10-23T00:22:56.714Z,189.88
2022-10-23T00:25:24.246Z,164.35
2022-10-23T00:27:52.000Z,216.43
2022-10-23T00:30:19.757Z,213.77
2022-10-23T00:32:47.279Z,213.23
2022-10-23T00:35:16.294Z,199.10
2022-10-23T00:37:44.069Z,163.20
2022-10-23T00:40:13.020Z,241.45
2022-10-23T00:42:40.845Z,155.18
2022-10-23T00:45:17.217Z,232.20
2022-10-23T00:47:44.889Z,208.13
2022-10-23T00:50:12.865Z,191.15
2022-10-23T00:52:47.921Z,221.93
2022-10-23T00:55:16.938Z,223.50
2022-10-23T00:57:47.461Z,257.80
2022-10-23T01:00:18.460Z,216.68
2022-10-23T01:02:46.670Z,148.25
2022-10-23T01:05:14.479Z,155.15
2022-10-23T01:07:53.701Z,191.15
2022-10-23T01:10:28.049Z,154.93
2022-10-23T01:13:04.565Z,230.82
2022-10-23T01:15:38.280Z,235.10
2022-10-23T01:18:12.972Z,185.50
2022-10-23T01:20:44.165Z,192.27
2022-10-23T01:23:43.787Z,210.80
2022-10-23T01:26:40.196Z,239.73
2022-10-23T01:29:14.972Z,176.82
2022-10-23T01:31:47.525Z,140.88
2022-10-23T01:34:19.436Z,204.13
2022-10-23T01:36:49.649Z,164.95
2022-10-23T01:39:22.730Z,173.98
2022-10-23T01:41:54.271Z,168.15
2022-10-23T01:44:29.067Z,199.77
2022-10-23T01:46:58.683Z,176.65
2022-10-23T01:49:26.274Z,187.65
2022-10-23T01:51:55.866Z,171.98
2022-10-23T01:54:26.233Z,123.07
2022-10-23T01:56:54.426Z,168.55
2022-10-23T01:59:28.020Z,187.52
2022-10-23T02:01:57.982Z,131.30
2022-10-23T02:04:30.680Z,135.80
2022-10-23T02:06:58.469Z,222.85
2022-10-23T02:09:26.487Z,171.90
2022-10-23T02:11:59.514Z,206.52
2022-10-23T02:14:38.290Z,154.52
2022-10-23T02:17:15.880Z,190.90
2022-10-23T02:19:48.671Z,242.00
2022-10-23T02:22:22.527Z,209.25
2022-10-23T02:24:54.041Z,251.48
2022-10-23T02:27:24.832Z,301.55
2022-10-23T02:29:57.820Z,245.65
2022-10-23T02:32:28.566Z,213.05
2022-10-23T02:34:56.247Z,224.85
2022-10-23T02:37:25.391Z,213.52
2022-10-23T02:39:54.156Z,275.23
2022-10-23T02:42:27.831Z,161.95
2022-10-23T02:45:06.213Z,312.40
2022-10-23T02:47:47.589Z,290.58
2022-10-23T02:50:22.756Z,252.73
2022-10-23T02:52:57.629Z,262.60
2022-10-23T02:55:35.565Z,274.08
2022-10-23T02:58:10.378Z,309.50
2022-10-23T03:00:43.628Z,185.25
2022-10-23T03:03:14.521Z,249.80
2022-10-23T03:05:44.767Z,163.57
2022-10-23T03:08:13.523Z,268.33
2022-10-23T03:10:42.059Z,234.50
2022-10-23T03:13:11.105Z,345.67
2022-10-23T03:15:40.005Z,311.35
2022-10-23T03:18:07.572Z,215.07
2022-10-23T03:20:35.091Z,240.85
2022-10-23T03:23:02.711Z,195.23
2022-10-23T03:25:30.268Z,297.60
2022-10-23T03:27:57.785Z,319.63
2022-10-23T03:30:25.572Z,275.55
2022-10-23T03:32:54.459Z,295.23
2022-10-23T03:35:21.968Z,287.88
2022-10-23T03:37:49.518Z,351.52
2022-10-23T03:40:17.157Z,308.10
2022-10-23T03:42:44.672Z,228.60
2022-10-23T03:45:12.208Z,262.50
2022-10-23T03:47:41.442Z,322.35
2022-10-23T03:50:13.423Z,325.88
2022-10-23T03:52:41.952Z,289.60
2022-10-23T03:55:10.335Z,290.13
2022-10-23T03:57:38.125Z,324.27
2022-10-23T04:00:07.357Z,329.20
2022-10-23T04:02:35.122Z,202.35
2022-10-23T04:05:02.779Z,278.50
2022-10-23T04:07:31.685Z,168.32
2022-10-23T04:09:59.179Z,291.50
2022-10-23T04:12:26.715Z,180.25
2022-10-23T04:14:54.239Z,227.43
2022-10-23T04:17:21.805Z,195.90
2022-10-23T04:19:49.385Z,169.25
2022-10-23T04:22:16.908Z,213.73
2022-10-23T04:24:47.939Z,243.13
2022-10-23T04:27:15.763Z,109.30
2022-10-23T04:29:43.279Z,130.45
2022-10-23T04:32:10.796Z,80.65
2022-10-23T04:34:38.342Z,118.78
2022-10-23T04:37:05.923Z,203.50
2022-10-23T04:39:33.464Z,117.25
2022-10-23T04:42:02.367Z,69.10
2022-10-23T04:44:29.863Z,52.35
2022-10-23T04:46:57.402Z,68.82
2022-10-23T04:49:25.112Z,84.90
2022-10-23T04:51:52.634Z,66.38
2022-10-23T04:54:20.218Z,54.40
2022-10-23T04:56:47.724Z,54.83
2022-10-23T04:59:16.610Z,42.22
2022-10-23T05:01:44.438Z,68.05
2022-10-23T05:04:13.598Z,69.18
2022-10-23T05:06:41.111Z,57.70
2022-10-23T05:09:08.624Z,47.15
2022-10-23T05:11:36.152Z,31.38
2022-10-23T05:14:03.674Z,48.70
2022-10-23T05:16:41.460Z,62.90
2022-10-23T05:19:11.648Z,55.17
2022-10-23T05:21:41.311Z,41.95
2022-10-23T05:24:09.397Z,64.20
2022-10-23T05:26:36.891Z,50.85
2022-10-23T05:29:04.561Z,62.92
2022-10-23T05:31:33.820Z,62.70
2022-10-23T05:34:02.802Z,81.38
2022-10-23T05:36:30.408Z,99.47
2022-10-23T05:38:58.880Z,277.70
2022-10-23T05:41:26.428Z,150.00
2022-10-23T05:43:54.150Z,255.65
2022-10-23T05:46:23.058Z,203.38
2022-10-23T05:48:51.199Z,130.55
2022-10-23T05:51:22.865Z,251.40
2022-10-23T05:53:50.779Z,152.43
2022-10-23T05:56:18.615Z,201.30
2022-10-23T05:58:46.628Z,267.98
2022-10-23T06:01:15.574Z,241.07
2022-10-23T06:03:43.137Z,213.57
2022-10-23T06:06:10.712Z,190.43
2022-10-23T06:08:39.555Z,171.85
2022-10-23T06:11:09.439Z,161.80
2022-10-23T06:13:37.156Z,226.70
2022-10-23T06:16:11.725Z,197.18
2022-10-23T06:18:39.239Z,270.90
2022-10-23T06:21:07.487Z,334.83
2022-10-23T06:23:36.595Z,234.35
2022-10-23T06:26:07.105Z,213.25
2022-10-23T06:28:35.014Z,196.73
2022-10-23T06:31:05.752Z,236.63
2022-10-23T06:33:33.312Z,156.10
2022-10-23T06:36:00.839Z,248.75
2022-10-23T06:38:28.367Z,250.40
2022-10-23T06:40:56.849Z,188.25
2022-10-23T06:43:25.816Z,84.32
2022-10-23T06:45:53.311Z,171.02
2022-10-23T06:48:20.887Z,157.65
2022-10-23T06:50:48.465Z,304.35
2022-10-23T06:53:15.988Z,266.80
2022-10-23T06:55:43.510Z,318.80
2022-10-23T06:58:11.378Z,318.38
2022-10-23T07:00:40.804Z,221.77
2022-10-23T07:03:09.029Z,300.98
2022-10-23T07:05:37.229Z,317.90
2022-10-23T07:08:05.760Z,343.33
2022-10-23T07:10:33.452Z,251.10
2022-10-23T07:13:01.252Z,282.10
2022-10-23T07:15:29.114Z,115.45
2022-10-23T07:17:57.964Z,194.93
2022-10-23T07:20:25.493Z,128.13
2022-10-23T07:22:54.359Z,211.55
2022-10-23T07:25:22.105Z,194.63
2022-10-23T07:27:50.067Z,236.98
2022-10-23T07:30:17.974Z,141.48
2022-10-23T07:32:45.941Z,160.68
2022-10-23T07:37:48.578Z,162.43
2022-10-23T07:40:17.205Z,125.60
2022-10-23T07:42:44.737Z,84.25
2022-10-23T07:45:12.655Z,83.00
2022-10-23T07:47:40.404Z,50.53
2022-10-23T07:50:09.478Z,57.50
2022-10-23T07:52:38.351Z,44.40
2022-10-23T07:55:06.559Z,47.35
2022-10-23T07:57:34.089Z,71.50
2022-10-23T08:00:01.609Z,61.47
2022-10-23T08:02:29.161Z,67.93
2022-10-23T08:04:56.655Z,36.25
2022-10-23T08:07:24.283Z,61.10
2022-10-23T08:09:53.137Z,75.18
2022-10-23T08:12:20.639Z,55.50
2022-10-23T08:14:48.135Z,46.42
2022-10-23T08:17:15.710Z,43.20
2022-10-23T08:19:46.295Z,35.90
2022-10-23T08:22:14.383Z,32.95
2022-10-23T08:24:42.098Z,30.17
2022-10-23T08:27:11.025Z,37.83
2022-10-23T08:29:38.547Z,43.60
2022-10-23T08:32:06.395Z,54.78
2022-10-23T08:34:33.928Z,42.67
2022-10-23T08:37:01.431Z,26.67
2022-10-23T08:39:28.946Z,27.60
2022-10-23T08:41:56.502Z,50.22
2022-10-23T08:44:30.852Z,31.92
2022-10-23T08:47:05.984Z,34.53
2022-10-23T08:49:45.315Z,30.55
2022-10-23T08:52:20.159Z,27.08
2022-10-23T08:54:58.037Z,33.42
2022-10-23T08:57:33.136Z,49.30
2022-10-23T09:00:07.144Z,28.95
2022-10-23T09:02:39.355Z,45.58
2022-10-23T09:05:14.738Z,54.22
2022-10-23T09:07:55.653Z,40.53
2022-10-23T09:10:36.882Z,52.88
2022-10-23T09:13:31.374Z,51.72
2022-10-23T09:16:11.372Z,55.50
2022-10-23T09:18:42.138Z,53.15
2022-10-23T09:21:10.831Z,60.03
2022-10-23T09:23:38.868Z,48.20
2022-10-23T09:26:13.769Z,48.10
2022-10-23T09:28:47.044Z,38.45
2022-10-23T09:31:17.672Z,36.20
2022-10-23T09:33:55.846Z,31.42
2022-10-23T09:36:25.877Z,52.70
2022-10-23T09:38:55.413Z,39.45
2022-10-23T09:41:25.561Z,48.63
2022-10-23T09:44:04.068Z,26.02
2022-10-23T09:46:40.386Z,44.10
2022-10-23T09:49:16.517Z,41.88
2022-10-23T09:51:54.037Z,41.95
2022-10-23T09:54:24.441Z,51.50
2022-10-23T09:56:55.048Z,41.10
2022-10-23T09:59:27.595Z,43.45
2022-10-23T10:01:58.446Z,56.00
2022-10-23T10:04:37.299Z,35.38
2022-10-23T10:07:06.915Z,46.08
2022-10-23T10:09:34.955Z,52.53
2022-10-23T10:12:37.517Z,23.98
2022-10-23T10:15:18.027Z,31.67
2022-10-23T10:17:57.405Z,46.17
2022-10-23T10:20:47.029Z,45.65
2022-10-23T10:23:24.251Z,42.88
2022-10-23T10:25:59.469Z,37.30
2022-10-23T10:28:39.457Z,43.85
2022-10-23T10:31:16.378Z,33.30
2022-10-23T10:33:54.953Z,32.83
2022-10-23T10:36:40.030Z,44.10
2022-10-23T10:39:16.940Z,53.75
2022-10-23T10:41:54.848Z,33.10
2022-10-23T10:44:40.187Z,55.20
2022-10-23T10:47:18.497Z,43.05
2022-10-23T10:50:00.673Z,48.58
2022-10-23T10:52:39.093Z,37.85
2022-10-23T10:55:15.932Z,44.00
2022-10-23T10:57:46.622Z,38.67
2022-10-23T11:00:17.287Z,28.20
2022-10-23T11:02:48.066Z,30.75
2022-10-23T11:05:31.300Z,38.50
2022-10-23T11:08:04.832Z,19.48
2022-10-23T11:10:34.640Z,24.63
2022-10-23T11:13:02.229Z,33.20
2022-10-23T11:15:40.111Z,33.78
2022-10-23T11:18:16.493Z,80.45
2022-10-23T11:21:00.179Z,29.08
2022-10-23T11:23:52.511Z,25.02
2022-10-23T11:26:32.187Z,29.52
2022-10-23T11:29:21.382Z,34.60
2022-10-23T11:31:58.505Z,46.75
2022-10-23T11:34:54.632Z,20.38
2022-10-23T11:37:24.536Z,44.15
2022-10-23T11:40:02.372Z,25.33
2022-10-23T11:42:34.733Z,42.22
2022-10-23T11:45:02.355Z,24.52
2022-10-23T11:47:39.705Z,27.98
2022-10-23T11:50:26.685Z,32.38
2022-10-23T11:53:14.695Z,24.55
2022-10-23T11:55:58.395Z,13.98
2022-10-23T11:58:32.154Z,11.50
2022-10-23T12:01:05.030Z,14.77
2022-10-23T12:03:43.376Z,14.23
2022-10-23T12:06:22.386Z,10.90
2022-10-23T12:08:55.810Z,12.00
2022-10-23T12:11:43.033Z,17.95
2022-10-23T12:14:28.240Z,13.77
2022-10-23T12:16:55.860Z,14.45
2022-10-23T12:19:25.916Z,11.73
2022-10-23T12:21:55.400Z,15.60
2022-10-23T12:24:42.460Z,12.77
2022-10-23T12:27:26.224Z,11.75
2022-10-23T12:30:04.788Z,10.60
2022-10-23T12:32:46.718Z,13.07
2022-10-23T12:35:25.800Z,13.25
2022-10-23T12:38:05.155Z,14.45
2022-10-23T12:40:34.032Z,10.23
2022-10-23T12:43:02.649Z,11.27
2022-10-23T12:45:33.196Z,11.05
2022-10-23T12:48:00.755Z,9.80
2022-10-23T12:50:30.003Z,9.30
2022-10-23T12:53:00.907Z,11.05
2022-10-23T12:55:35.174Z,37.97
2022-10-23T12:58:04.931Z,12.05
2022-10-23T13:00:32.461Z,15.07
2022-10-23T13:03:00.950Z,18.50
2022-10-23T13:05:29.863Z,11.35
2022-10-23T13:08:00.291Z,11.95
2022-10-23T13:10:27.937Z,22.98
2022-10-23T13:12:58.246Z,12.27
2022-10-23T13:15:39.036Z,12.80
2022-10-23T13:18:08.044Z,14.05
2022-10-23T13:20:38.194Z,20.23
2022-10-23T13:23:18.182Z,31.20
2022-10-23T13:25:55.499Z,39.10
2022-10-23T13:28:25.651Z,11.40
2022-10-23T13:31:07.216Z,13.40
2022-10-23T13:33:37.357Z,14.30
2022-10-23T13:36:07.632Z,14.10
2022-10-23T13:38:36.851Z,11.60
2022-10-23T13:41:06.897Z,13.63
2022-10-23T13:43:35.068Z,35.10
2022-10-23T13:46:04.011Z,55.85
2022-10-23T13:48:31.627Z,59.85
2022-10-23T13:51:07.446Z,36.70
2022-10-23T13:53:34.968Z,88.75
2022-10-23T13:56:02.595Z,30.45
2022-10-23T13:58:30.124Z,32.67
2022-10-23T14:00:59.226Z,37.88
2022-10-23T14:03:28.137Z,49.33
2022-10-23T14:05:55.649Z,55.08
2022-10-23T14:08:23.390Z,23.63
2022-10-23T14:10:51.014Z,26.38
2022-10-23T14:13:18.517Z,24.52
2022-10-23T14:15:53.416Z,68.70
2022-10-23T14:18:20.949Z,70.18
2022-10-23T14:20:49.970Z,44.42
2022-10-23T14:23:17.465Z,76.47
2022-10-23T14:25:44.991Z,70.47
2022-10-23T14:28:12.504Z,32.15
2022-10-23T14:30:40.003Z,32.72
2022-10-23T14:33:07.503Z,90.85
2022-10-23T14:35:35.384Z,67.47
2022-10-23T14:38:04.244Z,77.53
2022-10-23T14:40:31.743Z,78.93
2022-10-23T14:42:59.227Z,25.02
2022-10-23T14:45:26.788Z,20.90
2022-10-23T14:47:54.292Z,78.63
2022-10-23T14:50:21.847Z,32.15
2022-10-23T14:52:49.377Z,61.20
2022-10-23T14:55:18.468Z,28.15
2022-10-23T14:57:46.305Z,46.38
2022-10-23T15:00:15.004Z,25.98
2022-10-23T15:02:42.751Z,32.92
2022-10-23T15:05:10.439Z,23.00
2022-10-23T15:07:37.987Z,25.45
2022-10-23T15:10:06.143Z,17.85
2022-10-23T15:12:35.639Z,19.60
2022-10-23T15:15:03.344Z,22.40
2022-10-23T15:17:31.972Z,27.55
2022-10-23T15:19:59.459Z,21.50
2022-10-23T15:22:27.293Z,17.05
2022-10-23T15:24:56.697Z,19.77
2022-10-23T15:27:24.340Z,22.58
2022-10-23T15:29:53.269Z,20.88
2022-10-23T15:32:20.760Z,18.80
2022-10-23T15:34:49.648Z,21.48
2022-10-23T15:37:17.368Z,19.73
2022-10-23T15:39:45.460Z,20.88
2022-10-23T15:42:12.957Z,22.45
2022-10-23T15:44:41.488Z,20.67
2022-10-23T15:47:10.359Z,18.83
2022-10-23T15:49:38.064Z,16.58
2022-10-23T15:52:05.739Z,14.00
2022-10-23T15:54:33.311Z,16.67
2022-10-23T15:57:01.816Z,16.60
2022-10-23T15:59:31.485Z,15.98
2022-10-23T16:01:59.189Z,30.77
2022-10-23T16:04:29.369Z,16.83
2022-10-23T16:06:56.880Z,16.30
2022-10-23T16:09:24.444Z,16.60
2022-10-23T16:11:51.967Z,24.45
2022-10-23T16:14:19.535Z,18.73
2022-10-23T16:16:47.182Z,17.92
2022-10-23T16:19:15.020Z,18.38
2022-10-23T16:21:43.918Z,18.23
2022-10-23T16:24:11.808Z,16.60
2022-10-23T16:26:39.454Z,16.70
2022-10-23T16:29:08.545Z,16.55
2022-10-23T16:31:36.128Z,16.23
2022-10-23T16:34:05.668Z,39.30
2022-10-23T16:36:33.973Z,17.30
2022-10-23T16:39:04.579Z,22.00
2022-10-23T16:41:32.158Z,21.67
2022-10-23T16:43:59.706Z,18.58
2022-10-23T16:46:27.613Z,20.45
2022-10-23T16:48:55.150Z,18.35
2022-10-23T16:51:24.865Z,17.38
2022-10-23T16:53:53.187Z,21.02
2022-10-23T16:56:24.198Z,21.02
2022-10-23T16:58:51.794Z,20.17
2022-10-23T17:01:21.407Z,16.58
2022-10-23T17:03:50.640Z,14.25
2022-10-23T17:06:21.085Z,14.60
2022-10-23T17:08:49.352Z,13.18
2022-10-23T17:11:19.319Z,13.07
2022-10-23T17:13:52.519Z,12.65
2022-10-23T17:16:24.962Z,14.27
2022-10-23T17:18:53.173Z,27.77
2022-10-23T17:21:34.153Z,19.50
2022-10-23T17:26:34.831Z,16.65
2022-10-23T17:29:06.001Z,31.27
2022-10-23T17:31:36.828Z,19.08
2022-10-23T17:34:07.483Z,16.63
2022-10-23T17:36:38.631Z,18.20
2022-10-23T17:39:06.894Z,20.48
2022-10-23T17:41:35.824Z,15.50
2022-10-23T17:44:05.562Z,21.05
2022-10-23T17:46:33.503Z,22.88
2022-10-23T17:51:37.144Z,19.58
2022-10-23T17:54:07.074Z,19.23
2022-10-23T17:56:36.452Z,21.77
2022-10-23T17:59:07.379Z,21.52
2022-10-23T18:01:35.470Z,20.85
2022-10-23T18:04:05.579Z,15.27
2022-10-23T18:06:35.296Z,25.50
2022-10-23T18:09:04.624Z,23.77
2022-10-23T18:11:34.098Z,13.18
2022-10-23T18:14:02.340Z,11.30
2022-10-23T18:16:31.242Z,70.20
2022-10-23T18:19:00.813Z,31.38
2022-10-23T18:21:28.800Z,36.05
2022-10-23T18:23:56.813Z,32.47
2022-10-23T18:26:26.281Z,21.80
2022-10-23T18:28:56.845Z,40.47
2022-10-23T18:31:26.962Z,19.65
2022-10-23T18:33:58.935Z,17.50
2022-10-23T18:36:28.316Z,27.30
2022-10-23T18:41:33.214Z,14.65
2022-10-23T18:44:00.913Z,20.45
2022-10-23T18:46:28.627Z,11.73
2022-10-23T18:48:57.532Z,15.05
2022-10-23T18:51:29.033Z,8.48
2022-10-23T18:53:56.652Z,14.10
2022-10-23T18:56:26.856Z,14.70
2022-10-23T18:58:56.293Z,12.60
2022-10-23T19:01:26.849Z,18.63
2022-10-23T19:06:29.411Z,28.67
2022-10-23T19:08:57.385Z,29.92
2022-10-23T19:11:26.849Z,27.40
2022-10-23T19:13:54.706Z,18.23
2022-10-23T19:16:27.158Z,39.88
2022-10-23T19:18:58.628Z,16.20
2022-10-23T19:21:32.428Z,31.85
2022-10-23T19:24:02.679Z,20.73
2022-10-23T19:26:31.420Z,22.65
2022-10-23T19:28:59.421Z,21.63
2022-10-23T19:31:27.635Z,16.42
2022-10-23T19:33:55.212Z,38.45
2022-10-23T19:36:23.605Z,33.78
2022-10-23T19:38:52.681Z,39.92
2022-10-23T19:41:20.265Z,28.45
2022-10-23T19:43:47.813Z,60.35
2022-10-23T19:46:16.122Z,27.67
2022-10-23T19:48:44.912Z,57.17
2022-10-23T19:51:13.827Z,54.38
2022-10-23T19:53:42.718Z,41.28
2022-10-23T19:56:13.018Z,30.13
2022-10-23T19:58:41.305Z,35.25
2022-10-23T20:01:11.874Z,39.42
2022-10-23T20:03:40.497Z,29.38
2022-10-23T20:06:10.349Z,32.58
2022-10-23T20:08:37.873Z,28.90
2022-10-23T20:11:06.541Z,28.08
2022-10-23T20:13:35.468Z,15.57
2022-10-23T20:16:03.013Z,15.70
2022-10-23T20:18:30.549Z,25.08
2022-10-23T20:20:58.121Z,29.02
2022-10-23T20:23:25.677Z,11.18
2022-10-23T20:25:53.233Z,22.95
2022-10-23T20:28:21.699Z,10.57
2022-10-23T20:30:50.672Z,30.50
2022-10-23T20:33:18.250Z,7.82
2022-10-23T20:35:45.823Z,10.65
2022-10-23T20:38:13.410Z,12.55
2022-10-23T20:40:40.949Z,21.55
2022-10-23T20:43:08.469Z,10.40
2022-10-23T20:45:35.998Z,9.40
2022-10-23T20:48:05.130Z,9.05
2022-10-23T20:50:35.098Z,9.95
2022-10-23T20:53:02.631Z,8.77
2022-10-23T20:55:30.221Z,8.85
2022-10-23T20:57:57.797Z,8.10
2022-10-23T21:00:26.276Z,8.00
2022-10-23T21:02:54.014Z,8.02
2022-10-23T21:05:23.133Z,12.10
2022-10-23T21:07:50.660Z,14.48
2022-10-23T21:10:18.291Z,10.40
2022-10-23T21:12:46.116Z,12.30
2022-10-23T21:15:13.840Z,21.60
2022-10-23T21:17:41.726Z,9.45
2022-10-23T21:20:09.939Z,10.10
2022-10-23T21:22:38.787Z,15.77
2022-10-23T21:25:07.352Z,21.30
2022-10-23T21:27:34.891Z,25.65
2022-10-23T21:30:02.456Z,7.88
2022-10-23T21:32:29.963Z,8.75
2022-10-23T21:34:57.489Z,9.88
2022-10-23T21:37:25.855Z,10.40
2022-10-23T21:39:54.724Z,9.45
2022-10-23T21:42:22.268Z,8.63
2022-10-23T21:44:49.836Z,9.13
2022-10-23T21:47:17.355Z,8.43
2022-10-23T21:49:45.015Z,8.88
2022-10-23T21:52:15.013Z,9.70
2022-10-23T21:54:45.144Z,10.13
2022-10-23T21:57:15.604Z,9.77
2022-10-23T21:59:43.286Z,10.43
2022-10-23T22:02:11.273Z,14.80
2022-10-23T22:04:39.367Z,20.38
2022-10-23T22:07:10.723Z,22.98
2022-10-23T22:09:38.247Z,15.25
2022-10-23T22:12:06.054Z,8.77
2022-10-23T22:14:37.421Z,9.25
2022-10-23T22:17:04.964Z,11.38
2022-10-23T22:19:32.653Z,9.18
2022-10-23T22:22:00.195Z,10.15
2022-10-23T22:24:27.885Z,8.98
2022-10-23T22:26:57.154Z,9.65
2022-10-23T22:29:27.014Z,11.23
2022-10-23T22:31:56.503Z,9.60
2022-10-23T22:34:47.821Z,9.85
2022-10-23T22:37:14.020Z,10.48
2022-10-23T22:39:41.712Z,8.93
2022-10-23T22:42:09.765Z,9.68
2022-10-23T22:44:37.288Z,8.02
2022-10-23T22:47:06.237Z,7.10
2022-10-23T22:49:33.948Z,7.47
2022-10-23T22:52:01.485Z,9.20
2022-10-23T22:54:30.447Z,9.13
2022-10-23T22:56:58.084Z,18.73
2022-10-23T22:59:25.603Z,13.63
2022-10-23T23:01:53.412Z,13.52
2022-10-23T23:04:39.022Z,11.52
2022-10-23T23:07:06.980Z,10.88
2022-10-23T23:09:37.031Z,14.18
2022-10-23T23:12:04.787Z,11.50
2022-10-23T23:14:32.326Z,15.40
2022-10-23T23:17:00.244Z,16.42
2022-10-23T23:19:29.101Z,22.60
2022-10-23T23:21:57.213Z,18.85
2022-10-23T23:24:24.784Z,18.30
2022-10-23T23:26:52.444Z,11.45
2022-10-23T23:29:20.276Z,15.18
2022-10-23T23:31:47.825Z,13.18
2022-10-23T23:34:15.425Z,7.88
2022-10-23T23:36:44.309Z,10.07
2022-10-23T23:39:11.983Z,11.20
2022-10-23T23:41:39.532Z,19.95
2022-10-23T23:44:08.310Z,10.02
2022-10-23T23:46:35.914Z,12.70
2022-10-23T23:49:03.512Z,11.43
2022-10-23T23:51:31.053Z,20.30
2022-10-23T23:54:00.111Z,11.55
2022-10-23T23:56:28.048Z,17.70
2022-10-23T23:58:55.611Z,10.73
